<?xml version="1.0" encoding="UTF-8" standalone="no" ?>
<gpx xmlns="http://www.topografix.com/GPX/1/1" xmlns:xsi="http://www.w3.org/2001/XMLSchema-instance" xsi:schemaLocation="http://www.topografix.com/GPX/1/1 http://www.topografix.com/GPX/1/1/gpx.xsd" version="1.1" creator="VisuGPX - https://www.visugpx.com">
  <metadata>
    <name>Velo</name>
    <desc><![CDATA[idor:10246719_102515280_10794639_12973163_1418743_13428926_12998252_13558460_14716825_14357364_14251590]]></desc>
  </metadata>
  <trk>
    <name><![CDATA[Casson_TourVeloDom_34km-12998252]]></name>
    <extensions>
      <line xmlns="http://www.topografix.com/GPX/gpx_style/0/2">
        <color>008800</color>
        <width>4</width>
      </line>
    </extensions>
    <trkseg>
      <trkpt lat="47.2691" lon="-1.54495">
        <ele>28</ele>
        <time>2023-11-15T07:51:25Z</time>
      </trkpt>
      <trkpt lat="47.26886" lon="-1.54612">
        <ele>31</ele>
        <time>2023-11-15T07:52:31Z</time>
      </trkpt>
      <trkpt lat="47.27655" lon="-1.54801">
        <ele>38</ele>
        <time>2023-11-15T08:02:56Z</time>
      </trkpt>
      <trkpt lat="47.28552" lon="-1.54964">
        <ele>26</ele>
        <time>2023-11-15T08:14:59Z</time>
      </trkpt>
      <trkpt lat="47.29984" lon="-1.54767">
        <ele>26</ele>
        <time>2023-11-15T08:34:11Z</time>
      </trkpt>
      <trkpt lat="47.30758" lon="-1.54286">
        <ele>23</ele>
        <time>2023-11-15T08:45:23Z</time>
      </trkpt>
      <trkpt lat="47.31608" lon="-1.5432">
        <ele>9</ele>
        <time>2023-11-15T08:56:44Z</time>
      </trkpt>
      <trkpt lat="47.31939" lon="-1.54921">
        <ele>25</ele>
        <time>2023-11-15T09:03:44Z</time>
      </trkpt>
      <trkpt lat="47.32312" lon="-1.55187">
        <ele>30</ele>
        <time>2023-11-15T09:09:16Z</time>
      </trkpt>
      <trkpt lat="47.32614" lon="-1.55942">
        <ele>32</ele>
        <time>2023-11-15T09:17:12Z</time>
      </trkpt>
      <trkpt lat="47.33347" lon="-1.57033">
        <ele>33</ele>
        <time>2023-11-15T09:31:06Z</time>
      </trkpt>
      <trkpt lat="47.33527" lon="-1.57178">
        <ele>38</ele>
        <time>2023-11-15T09:33:50Z</time>
      </trkpt>
      <trkpt lat="47.33964" lon="-1.5723">
        <ele>33</ele>
        <time>2023-11-15T09:39:41Z</time>
      </trkpt>
      <trkpt lat="47.34266" lon="-1.57264">
        <ele>24</ele>
        <time>2023-11-15T09:43:43Z</time>
      </trkpt>
      <trkpt lat="47.34569" lon="-1.57093">
        <ele>29</ele>
        <time>2023-11-15T09:48:03Z</time>
      </trkpt>
      <trkpt lat="47.34923" lon="-1.57299">
        <ele>36</ele>
        <time>2023-11-15T09:53:08Z</time>
      </trkpt>
      <trkpt lat="47.35034" lon="-1.57144">
        <ele>30</ele>
        <time>2023-11-15T09:55:10Z</time>
      </trkpt>
      <trkpt lat="47.3522" lon="-1.57436">
        <ele>13</ele>
        <time>2023-11-15T09:58:48Z</time>
      </trkpt>
      <trkpt lat="47.35487" lon="-1.57376">
        <ele>18</ele>
        <time>2023-11-15T10:02:24Z</time>
      </trkpt>
      <trkpt lat="47.3572" lon="-1.57565">
        <ele>28</ele>
        <time>2023-11-15T10:05:57Z</time>
      </trkpt>
      <trkpt lat="47.36162" lon="-1.57522">
        <ele>29</ele>
        <time>2023-11-15T10:11:51Z</time>
      </trkpt>
      <trkpt lat="47.36272" lon="-1.57968">
        <ele>31</ele>
        <time>2023-11-15T10:16:09Z</time>
      </trkpt>
      <trkpt lat="47.36609" lon="-1.58286">
        <ele>31</ele>
        <time>2023-11-15T10:21:29Z</time>
      </trkpt>
      <trkpt lat="47.37417" lon="-1.58723">
        <ele>31</ele>
        <time>2023-11-15T10:32:58Z</time>
      </trkpt>
      <trkpt lat="47.37569" lon="-1.58972">
        <ele>32</ele>
        <time>2023-11-15T10:36:00Z</time>
      </trkpt>
      <trkpt lat="47.37574" lon="-1.59084">
        <ele>33</ele>
        <time>2023-11-15T10:37:01Z</time>
      </trkpt>
      <trkpt lat="47.37894" lon="-1.58809">
        <ele>37</ele>
        <time>2023-11-15T10:41:57Z</time>
      </trkpt>
      <trkpt lat="47.38411" lon="-1.5814">
        <ele>36</ele>
        <time>2023-11-15T10:51:07Z</time>
      </trkpt>
      <trkpt lat="47.38894" lon="-1.58251">
        <ele>34</ele>
        <time>2023-11-15T10:57:39Z</time>
      </trkpt>
      <trkpt lat="47.38882" lon="-1.57934">
        <ele>32</ele>
        <time>2023-11-15T11:00:31Z</time>
      </trkpt>
      <trkpt lat="47.39155" lon="-1.57599">
        <ele>27</ele>
        <time>2023-11-15T11:05:15Z</time>
      </trkpt>
      <trkpt lat="47.39208" lon="-1.57177">
        <ele>21</ele>
        <time>2023-11-15T11:09:08Z</time>
      </trkpt>
      <trkpt lat="47.39052" lon="-1.56427">
        <ele>20</ele>
        <time>2023-11-15T11:16:13Z</time>
      </trkpt>
      <trkpt lat="47.38921" lon="-1.5634">
        <ele>22</ele>
        <time>2023-11-15T11:18:08Z</time>
      </trkpt>
      <trkpt lat="47.38748" lon="-1.55692">
        <ele>32</ele>
        <time>2023-11-15T11:24:26Z</time>
      </trkpt>
      <trkpt lat="47.38572" lon="-1.55529">
        <ele>28</ele>
        <time>2023-11-15T11:27:12Z</time>
      </trkpt>
      <trkpt lat="47.38496" lon="-1.55213">
        <ele>22</ele>
        <time>2023-11-15T11:30:14Z</time>
      </trkpt>
      <trkpt lat="47.38386" lon="-1.55141">
        <ele>21</ele>
        <time>2023-11-15T11:31:50Z</time>
      </trkpt>
      <trkpt lat="47.38268" lon="-1.54753">
        <ele>27</ele>
        <time>2023-11-15T11:35:41Z</time>
      </trkpt>
      <trkpt lat="47.38016" lon="-1.54503">
        <ele>31</ele>
        <time>2023-11-15T11:39:44Z</time>
      </trkpt>
      <trkpt lat="47.37891" lon="-1.54279">
        <ele>30</ele>
        <time>2023-11-15T11:42:21Z</time>
      </trkpt>
      <trkpt lat="47.37926" lon="-1.53916">
        <ele>29</ele>
        <time>2023-11-15T11:45:40Z</time>
      </trkpt>
      <trkpt lat="47.37781" lon="-1.53911">
        <ele>29</ele>
        <time>2023-11-15T11:47:36Z</time>
      </trkpt>
      <trkpt lat="47.37601" lon="-1.54069">
        <ele>31</ele>
        <time>2023-11-15T11:50:24Z</time>
      </trkpt>
      <trkpt lat="47.37287" lon="-1.54074">
        <ele>22</ele>
        <time>2023-11-15T11:54:35Z</time>
      </trkpt>
      <trkpt lat="47.37155" lon="-1.54064">
        <ele>20</ele>
        <time>2023-11-15T11:56:21Z</time>
      </trkpt>
      <trkpt lat="47.37096" lon="-1.54176">
        <ele>19</ele>
        <time>2023-11-15T11:57:38Z</time>
      </trkpt>
      <trkpt lat="47.36924" lon="-1.54187">
        <ele>20</ele>
        <time>2023-11-15T11:59:56Z</time>
      </trkpt>
      <trkpt lat="47.36689" lon="-1.54355">
        <ele>19</ele>
        <time>2023-11-15T12:03:25Z</time>
      </trkpt>
      <trkpt lat="47.36467" lon="-1.54299">
        <ele>20</ele>
        <time>2023-11-15T12:06:25Z</time>
      </trkpt>
      <trkpt lat="47.3645" lon="-1.53926">
        <ele>24</ele>
        <time>2023-11-15T12:09:48Z</time>
      </trkpt>
      <trkpt lat="47.36301" lon="-1.53748">
        <ele>26</ele>
        <time>2023-11-15T12:12:21Z</time>
      </trkpt>
      <trkpt lat="47.3618" lon="-1.53794">
        <ele>27</ele>
        <time>2023-11-15T12:14:01Z</time>
      </trkpt>
      <trkpt lat="47.36018" lon="-1.53824">
        <ele>28</ele>
        <time>2023-11-15T12:16:12Z</time>
      </trkpt>
      <trkpt lat="47.35624" lon="-1.53574">
        <ele>32</ele>
        <time>2023-11-15T12:21:55Z</time>
      </trkpt>
      <trkpt lat="47.35486" lon="-1.53518">
        <ele>33</ele>
        <time>2023-11-15T12:23:50Z</time>
      </trkpt>
      <trkpt lat="47.35302" lon="-1.53636">
        <ele>33</ele>
        <time>2023-11-15T12:26:31Z</time>
      </trkpt>
      <trkpt lat="47.35254" lon="-1.53809">
        <ele>36</ele>
        <time>2023-11-15T12:28:12Z</time>
      </trkpt>
      <trkpt lat="47.35178" lon="-1.54141">
        <ele>31</ele>
        <time>2023-11-15T12:31:22Z</time>
      </trkpt>
      <trkpt lat="47.34694" lon="-1.54314">
        <ele>31</ele>
        <time>2023-11-15T12:38:01Z</time>
      </trkpt>
      <trkpt lat="47.34421" lon="-1.54641">
        <ele>28</ele>
        <time>2023-11-15T12:42:42Z</time>
      </trkpt>
      <trkpt lat="47.34341" lon="-1.54753">
        <ele>24</ele>
        <time>2023-11-15T12:44:11Z</time>
      </trkpt>
      <trkpt lat="47.33846" lon="-1.54942">
        <ele>22</ele>
        <time>2023-11-15T12:51:00Z</time>
      </trkpt>
      <trkpt lat="47.33629" lon="-1.5435">
        <ele>24</ele>
        <time>2023-11-15T12:57:05Z</time>
      </trkpt>
      <trkpt lat="47.33376" lon="-1.53927">
        <ele>20</ele>
        <time>2023-11-15T13:02:11Z</time>
      </trkpt>
      <trkpt lat="47.33301" lon="-1.53949">
        <ele>18</ele>
        <time>2023-11-15T13:03:13Z</time>
      </trkpt>
      <trkpt lat="47.33254" lon="-1.53567">
        <ele>22</ele>
        <time>2023-11-15T13:06:43Z</time>
      </trkpt>
      <trkpt lat="47.32704" lon="-1.53682">
        <ele>23</ele>
        <time>2023-11-15T13:14:08Z</time>
      </trkpt>
      <trkpt lat="47.32236" lon="-1.53549">
        <ele>15</ele>
        <time>2023-11-15T13:20:30Z</time>
      </trkpt>
      <trkpt lat="47.32" lon="-1.53691">
        <ele>15</ele>
        <time>2023-11-15T13:23:54Z</time>
      </trkpt>
      <trkpt lat="47.31733" lon="-1.54223">
        <ele>11</ele>
        <time>2023-11-15T13:29:53Z</time>
      </trkpt>
      <trkpt lat="47.3161" lon="-1.543">
        <ele>9</ele>
        <time>2023-11-15T13:31:40Z</time>
      </trkpt>
      <trkpt lat="47.31218" lon="-1.54253">
        <ele>6</ele>
        <time>2023-11-15T13:36:55Z</time>
      </trkpt>
    </trkseg>
  </trk>
</gpx>